Accueil
METAR-TAF:

METAR-TAF

Aéroports :

Yüksekova, Turquie

latitude: 37-33-06N, longitude: 44-14-01E, altitude: 1950 m

Observation

Le bulletin a été fait il y a 10 heures et 54 minutes, à 12:50 UTC
Vent calme
Température -9°C
Humidité 67%
Pression 1023 hPa
Visibilité: 7000 m

METAR: LTCW 251250Z 00000KT 7000 NSC M09/M14 Q1023

Heure: 02:44 (23:44 UTC)

Prévision

Le bulletin a été fait il y a 1 heure et 4 minutes, à 22:40 UTC
Prévision valable du 26 à 00 UTC au 26 à 09 UTC
Vent 2 kt de direction variable
Visibilité: 1100 m
Quelques nuages à une hauteur de 800 ft
Nuages épars à une hauteur de 3000 ft
brume
Evoluant progressivement
du 26 à 01 UTC au 26 à 03 UTC
Visibilité: 3100 m
Temporairement
du 26 à 06 UTC au 26 à 09 UTC
Visibilité: 0800 m
à une hauteur de 200 ft
brouillard givrant

TAF: LTCW 252240Z 2600/2609 VRB02KT 1100 BR FEW008 SCT030 BECMG 2601/2603 3100 TEMPO 2606/2609 0800 FZFG VV002

Observations et prévisions météorologiques de plus de 4000 aéroports (messages METAR et TAF).

Les stations disponibles sont représentées par des disques jaunes et rouges sur la carte.

Passer la souris dessus pour voir le nom de la station.

Cliquer dessus pour voir les observations et prévisions météorologiques.

Pour changer de carte: cliquez sur les boutons verts avec une croix noire pour zoomer, sur le bouton vert avec un tiret pour effectuer un zoom arrière, ou sur les flèches vertes pour les cartes adjacentes.


METAR-TAF: